createdAt,value
2022-09-04T00:00:12.297Z,3.72
2022-09-04T00:02:48.380Z,3.63
2022-09-04T00:05:20.028Z,3.75
2022-09-04T00:07:57.744Z,3.70
2022-09-04T00:10:30.827Z,3.45
2022-09-04T00:13:03.991Z,3.88
2022-09-04T00:15:36.406Z,3.42
2022-09-04T00:18:07.810Z,3.70
2022-09-04T00:20:39.001Z,3.22
2022-09-04T00:23:12.514Z,3.40
2022-09-04T00:25:46.498Z,3.55
2022-09-04T00:28:20.017Z,3.17
2022-09-04T00:30:52.745Z,3.80
2022-09-04T00:33:23.775Z,3.70
2022-09-04T00:35:55.382Z,3.78
2022-09-04T00:38:25.940Z,3.50
2022-09-04T00:40:58.720Z,3.28
2022-09-04T00:43:37.094Z,3.42
2022-09-04T00:46:20.081Z,2.83
2022-09-04T00:49:07.405Z,3.60
2022-09-04T00:51:40.421Z,3.70
2022-09-04T00:54:20.213Z,3.45
2022-09-04T00:57:03.216Z,3.33
2022-09-04T00:59:41.703Z,3.65
2022-09-04T01:02:13.183Z,3.63
2022-09-04T01:04:44.772Z,3.60
2022-09-04T01:07:24.019Z,3.70
2022-09-04T01:10:04.518Z,3.97
2022-09-04T01:12:37.793Z,3.40
2022-09-04T01:15:14.508Z,3.63
2022-09-04T01:17:46.692Z,3.70
2022-09-04T01:20:20.189Z,3.67
2022-09-04T01:23:01.107Z,3.80
2022-09-04T01:25:34.782Z,3.70
2022-09-04T01:28:07.477Z,3.88
2022-09-04T01:30:39.624Z,3.47
2022-09-04T01:33:10.369Z,3.70
2022-09-04T01:35:45.472Z,3.67
2022-09-04T01:38:17.581Z,3.47
2022-09-04T01:40:48.263Z,3.55
2022-09-04T01:43:21.036Z,3.53
2022-09-04T01:46:05.125Z,3.60
2022-09-04T01:48:39.453Z,3.72
2022-09-04T01:51:10.655Z,3.53
2022-09-04T01:53:41.290Z,3.80
2022-09-04T01:56:12.151Z,3.60
2022-09-04T01:58:45.457Z,3.80
2022-09-04T02:01:19.434Z,3.78
2022-09-04T02:03:54.260Z,3.53
2022-09-04T02:06:27.750Z,3.50
2022-09-04T02:09:04.743Z,3.65
2022-09-04T02:11:33.594Z,3.70
2022-09-04T02:14:15.831Z,3.30
2022-09-04T02:16:48.388Z,3.67
2022-09-04T02:19:21.544Z,3.70
2022-09-04T02:21:53.175Z,4.15
2022-09-04T02:24:24.057Z,3.60
2022-09-04T02:26:54.682Z,3.75
2022-09-04T02:29:30.017Z,3.80
2022-09-04T02:32:03.531Z,3.70
2022-09-04T02:34:39.216Z,4.15
2022-09-04T02:37:11.414Z,3.65
2022-09-04T02:39:46.546Z,4.13
2022-09-04T02:42:19.724Z,3.92
2022-09-04T02:44:53.639Z,3.88
2022-09-04T02:47:25.787Z,3.40
2022-09-04T02:50:00.218Z,3.90
2022-09-04T02:52:44.205Z,3.80
2022-09-04T02:55:23.868Z,3.97
2022-09-04T02:57:58.180Z,3.60
2022-09-04T03:00:38.806Z,3.97
2022-09-04T03:03:10.223Z,4.00
2022-09-04T03:05:43.190Z,3.60
2022-09-04T03:08:16.950Z,3.55
2022-09-04T03:10:47.173Z,4.10
2022-09-04T03:13:21.385Z,3.88
2022-09-04T03:15:54.675Z,3.97
2022-09-04T03:18:25.861Z,4.38
2022-09-04T03:20:58.250Z,4.13
2022-09-04T03:23:30.630Z,3.75
2022-09-04T03:26:07.226Z,3.92
2022-09-04T03:28:44.497Z,4.45
2022-09-04T03:31:23.060Z,3.65
2022-09-04T03:33:53.606Z,3.90
2022-09-04T03:36:26.733Z,3.88
2022-09-04T03:39:02.718Z,4.38
2022-09-04T03:41:34.629Z,4.30
2022-09-04T03:44:09.202Z,4.05
2022-09-04T03:46:45.232Z,4.20
2022-09-04T03:49:17.120Z,4.07
2022-09-04T03:51:51.521Z,4.30
2022-09-04T03:54:36.335Z,4.10
2022-09-04T03:57:09.688Z,4.18
2022-09-04T03:59:45.528Z,4.03
2022-09-04T04:02:20.907Z,4.45
2022-09-04T04:04:56.548Z,4.15
2022-09-04T04:07:28.876Z,4.10
2022-09-04T04:10:03.149Z,4.22
2022-09-04T04:12:49.900Z,4.10
2022-09-04T04:15:27.732Z,3.90
2022-09-04T04:18:05.589Z,4.40
2022-09-04T04:20:38.225Z,3.97
2022-09-04T04:23:23.310Z,4.18
2022-09-04T04:26:02.043Z,4.75
2022-09-04T04:28:38.315Z,4.40
2022-09-04T04:31:10.575Z,4.18
2022-09-04T04:33:45.849Z,4.40
2022-09-04T04:36:18.568Z,4.53
2022-09-04T04:38:56.526Z,4.50
2022-09-04T04:41:31.340Z,4.68
2022-09-04T04:44:07.785Z,4.70
2022-09-04T04:46:40.083Z,4.90
2022-09-04T04:49:28.589Z,4.40
2022-09-04T04:52:15.853Z,4.40
2022-09-04T04:54:52.598Z,4.53
2022-09-04T04:57:28.623Z,5.13
2022-09-04T05:00:06.779Z,4.47
2022-09-04T05:02:39.643Z,4.80
2022-09-04T05:05:13.996Z,4.80
2022-09-04T05:07:44.345Z,4.45
2022-09-04T05:10:18.549Z,5.10
2022-09-04T05:13:00.464Z,4.88
2022-09-04T05:15:40.672Z,4.65
2022-09-04T05:18:24.848Z,4.80
2022-09-04T05:20:55.888Z,4.80
2022-09-04T05:23:29.048Z,5.00
2022-09-04T05:26:02.415Z,4.80
2022-09-04T05:28:34.617Z,4.82
2022-09-04T05:31:11.052Z,5.10
2022-09-04T05:33:42.342Z,4.70
2022-09-04T05:36:14.721Z,4.65
2022-09-04T05:38:46.915Z,4.72
2022-09-04T05:41:22.819Z,4.57
2022-09-04T05:43:57.944Z,4.72
2022-09-04T05:46:34.073Z,4.85
2022-09-04T05:49:05.428Z,5.22
2022-09-04T05:51:54.914Z,5.05
2022-09-04T05:54:30.316Z,5.07
2022-09-04T05:57:08.553Z,4.93
2022-09-04T05:59:54.872Z,4.70
2022-09-04T06:02:38.651Z,4.85
2022-09-04T06:05:21.290Z,4.65
2022-09-04T06:07:54.877Z,5.28
2022-09-04T06:10:26.299Z,4.93
2022-09-04T06:13:13.875Z,4.43
2022-09-04T06:15:50.580Z,5.00
2022-09-04T06:18:25.950Z,4.85
2022-09-04T06:21:08.281Z,5.22
2022-09-04T06:23:54.224Z,5.00
2022-09-04T06:26:37.462Z,4.85
2022-09-04T06:29:23.719Z,4.78
2022-09-04T06:32:04.439Z,4.60
2022-09-04T06:34:43.229Z,4.75
2022-09-04T06:37:17.142Z,4.07
2022-09-04T06:39:52.142Z,4.38
2022-09-04T06:42:28.166Z,5.15
2022-09-04T06:45:05.154Z,4.75
2022-09-04T06:47:40.424Z,4.82
2022-09-04T06:50:18.647Z,4.32
2022-09-04T06:52:50.301Z,4.35
2022-09-04T06:55:22.674Z,4.68
2022-09-04T06:58:03.022Z,4.28
2022-09-04T07:00:32.391Z,4.43
2022-09-04T07:03:10.789Z,4.05
2022-09-04T07:05:44.169Z,4.25
2022-09-04T07:08:17.240Z,4.70
2022-09-04T07:10:47.604Z,3.90
2022-09-04T07:13:24.570Z,3.85
2022-09-04T07:16:23.219Z,3.75
2022-09-04T07:18:59.429Z,4.28
2022-09-04T07:21:32.160Z,4.10
2022-09-04T07:24:04.814Z,4.25
2022-09-04T07:26:36.502Z,3.70
2022-09-04T07:29:12.584Z,4.22
2022-09-04T07:31:43.822Z,3.83
2022-09-04T07:34:18.588Z,3.70
2022-09-04T07:36:51.481Z,3.92
2022-09-04T07:39:25.742Z,3.90
2022-09-04T07:41:59.849Z,3.75
2022-09-04T07:44:32.135Z,3.45
2022-09-04T07:47:08.085Z,3.33
2022-09-04T07:49:39.770Z,4.13
2022-09-04T07:52:13.552Z,3.50
2022-09-04T07:54:50.490Z,3.30
2022-09-04T07:57:31.030Z,3.50
2022-09-04T08:00:05.710Z,3.00
2022-09-04T08:02:43.089Z,3.60
2022-09-04T08:05:23.994Z,3.35
2022-09-04T08:08:07.177Z,3.30
2022-09-04T08:10:39.349Z,2.92
2022-09-04T08:13:13.238Z,3.83
2022-09-04T08:15:54.683Z,4.13
2022-09-04T08:18:41.988Z,4.07
2022-09-04T08:21:17.595Z,4.75
2022-09-04T08:24:06.744Z,6.18
2022-09-04T08:26:42.227Z,4.63
2022-09-04T08:29:24.055Z,3.25
2022-09-04T08:31:58.630Z,3.33
2022-09-04T08:34:53.975Z,5.70
2022-09-04T08:37:26.839Z,4.85
2022-09-04T08:40:02.765Z,4.20
2022-09-04T08:42:46.667Z,3.20
2022-09-04T08:45:23.357Z,3.22
2022-09-04T08:48:16.745Z,3.05
2022-09-04T08:51:03.381Z,3.42
2022-09-04T08:53:40.688Z,3.10
2022-09-04T08:56:22.229Z,3.20
2022-09-04T08:59:08.282Z,3.17
2022-09-04T09:01:43.413Z,3.50
2022-09-04T09:04:25.757Z,3.50
2022-09-04T09:07:14.289Z,3.05
2022-09-04T09:09:59.569Z,3.28
2022-09-04T09:12:49.107Z,2.90
2022-09-04T09:15:26.918Z,3.08
2022-09-04T09:18:05.005Z,2.92
2022-09-04T09:20:41.212Z,3.10
2022-09-04T09:23:20.565Z,3.40
2022-09-04T09:25:53.132Z,2.90
2022-09-04T09:28:42.209Z,3.22
2022-09-04T09:31:28.626Z,3.10
2022-09-04T09:34:11.883Z,3.20
2022-09-04T09:37:02.801Z,2.97
2022-09-04T09:39:39.166Z,2.80
2022-09-04T09:42:24.398Z,2.90
2022-09-04T09:45:06.204Z,2.97
2022-09-04T09:48:11.545Z,2.60
2022-09-04T09:50:55.275Z,2.58
2022-09-04T09:53:41.762Z,2.97
2022-09-04T09:56:30.946Z,2.60
2022-09-04T09:59:12.620Z,2.83
2022-09-04T10:01:53.536Z,3.00
2022-09-04T10:04:40.135Z,2.60
2022-09-04T10:07:37.059Z,2.90
2022-09-04T10:10:20.266Z,2.50
2022-09-04T10:13:01.696Z,2.90
2022-09-04T10:15:37.668Z,3.42
2022-09-04T10:18:24.265Z,3.10
2022-09-04T10:21:16.767Z,3.15
2022-09-04T10:23:55.398Z,2.97
2022-09-04T10:26:31.883Z,3.05
2022-09-04T10:29:18.611Z,2.80
2022-09-04T10:31:59.341Z,3.42
2022-09-04T10:34:42.621Z,3.90
2022-09-04T10:37:18.900Z,3.95
2022-09-04T10:40:11.262Z,3.88
2022-09-04T10:42:47.096Z,3.58
2022-09-04T10:45:18.947Z,3.85
2022-09-04T10:48:01.839Z,3.10
2022-09-04T10:50:37.413Z,4.03
2022-09-04T10:53:36.786Z,3.25
2022-09-04T10:56:08.760Z,4.45
2022-09-04T10:58:44.987Z,3.70
2022-09-04T11:01:27.819Z,3.70
2022-09-04T11:04:05.476Z,3.80
2022-09-04T11:06:49.410Z,3.78
2022-09-04T11:09:32.684Z,3.38
2022-09-04T11:12:22.025Z,2.95
2022-09-04T11:14:57.103Z,3.20
2022-09-04T11:17:42.688Z,3.03
2022-09-04T11:20:39.671Z,3.95
2022-09-04T11:23:26.584Z,4.05
2022-09-04T11:26:13.965Z,3.75
2022-09-04T11:28:56.995Z,3.50
2022-09-04T11:31:35.880Z,3.72
2022-09-04T11:34:26.344Z,3.88
2022-09-04T11:37:15.435Z,3.70
2022-09-04T11:39:58.675Z,4.65
2022-09-04T11:42:31.136Z,3.97
2022-09-04T11:45:27.049Z,3.38
2022-09-04T11:48:06.733Z,3.40
2022-09-04T11:50:40.822Z,3.13
2022-09-04T11:53:19.161Z,3.30
2022-09-04T11:56:05.176Z,2.92
2022-09-04T11:58:41.572Z,2.55
2022-09-04T12:01:18.770Z,3.15
2022-09-04T12:04:02.192Z,3.47
2022-09-04T12:06:35.126Z,3.00
2022-09-04T12:09:19.928Z,2.88
2022-09-04T12:12:00.445Z,2.38
2022-09-04T12:14:36.293Z,2.50
2022-09-04T12:17:35.592Z,3.15
2022-09-04T12:20:24.742Z,2.50
2022-09-04T12:23:11.509Z,2.40
2022-09-04T12:26:07.095Z,2.78
2022-09-04T12:28:50.482Z,2.30
2022-09-04T12:31:25.416Z,2.53
2022-09-04T12:34:03.503Z,2.50
2022-09-04T12:36:59.328Z,2.50
2022-09-04T12:39:46.922Z,2.20
2022-09-04T12:42:18.351Z,2.47
2022-09-04T12:44:53.443Z,2.90
2022-09-04T12:47:32.754Z,3.17
2022-09-04T12:50:22.047Z,2.90
2022-09-04T12:53:10.324Z,2.20
2022-09-04T12:55:45.711Z,2.05
2022-09-04T12:58:26.220Z,2.33
2022-09-04T13:00:59.805Z,1.70
2022-09-04T13:03:30.820Z,1.92
2022-09-04T13:06:05.119Z,1.88
2022-09-04T13:08:42.279Z,2.00
2022-09-04T13:11:15.964Z,3.95
2022-09-04T13:13:48.633Z,2.83
2022-09-04T13:16:24.095Z,2.70
2022-09-04T13:18:58.753Z,2.13
2022-09-04T13:21:35.761Z,1.75
2022-09-04T13:24:11.693Z,1.70
2022-09-04T13:26:47.786Z,2.28
2022-09-04T13:29:20.379Z,1.90
2022-09-04T13:31:59.477Z,1.95
2022-09-04T13:34:34.119Z,2.10
2022-09-04T13:37:08.208Z,2.05
2022-09-04T13:39:44.673Z,2.10
2022-09-04T13:42:27.939Z,2.05
2022-09-04T13:45:05.695Z,1.88
2022-09-04T13:47:40.899Z,2.03
2022-09-04T13:50:14.177Z,2.40
2022-09-04T13:52:45.812Z,1.75
2022-09-04T13:55:19.097Z,1.70
2022-09-04T13:57:49.956Z,1.40
2022-09-04T14:00:19.427Z,1.88
2022-09-04T14:02:55.891Z,1.80
2022-09-04T14:05:25.378Z,2.25
2022-09-04T14:07:59.455Z,2.28
2022-09-04T14:10:40.467Z,2.78
2022-09-04T14:13:15.992Z,3.72
2022-09-04T14:16:01.950Z,3.03
2022-09-04T14:18:45.719Z,3.13
2022-09-04T14:21:17.209Z,2.30
2022-09-04T14:23:48.767Z,2.05
2022-09-04T14:26:28.845Z,2.08
2022-09-04T14:29:02.767Z,2.00
2022-09-04T14:31:35.218Z,2.03
2022-09-04T14:34:17.289Z,2.08
2022-09-04T14:36:56.385Z,2.17
2022-09-04T14:39:28.197Z,1.90
2022-09-04T14:42:05.946Z,1.95
2022-09-04T14:44:44.085Z,1.90
2022-09-04T14:47:26.030Z,2.00
2022-09-04T14:49:57.175Z,1.90
2022-09-04T14:52:28.292Z,1.80
2022-09-04T14:54:58.403Z,2.03
2022-09-04T14:57:31.090Z,2.30
2022-09-04T15:00:04.027Z,1.88
2022-09-04T15:02:36.340Z,2.20
2022-09-04T15:05:08.569Z,1.92
2022-09-04T15:07:52.369Z,1.92
2022-09-04T15:10:24.602Z,1.90
2022-09-04T15:12:57.698Z,2.15
2022-09-04T15:15:31.720Z,2.05
2022-09-04T15:18:09.961Z,1.80
2022-09-04T15:20:41.492Z,1.90
2022-09-04T15:23:15.338Z,1.90
2022-09-04T15:25:59.711Z,1.98
2022-09-04T15:28:30.907Z,1.77
2022-09-04T15:31:15.244Z,1.80
2022-09-04T15:33:44.957Z,1.92
2022-09-04T15:36:20.291Z,2.08
2022-09-04T15:38:53.717Z,2.03
2022-09-04T15:41:26.875Z,2.03
2022-09-04T15:43:59.594Z,2.63
2022-09-04T15:46:30.257Z,2.20
2022-09-04T15:49:07.744Z,2.38
2022-09-04T15:51:41.534Z,2.15
2022-09-04T15:54:16.170Z,2.50
2022-09-04T15:56:48.054Z,2.20
2022-09-04T15:59:20.447Z,2.20
2022-09-04T16:01:52.669Z,3.03
2022-09-04T16:04:26.394Z,2.30
2022-09-04T16:06:57.887Z,4.50
2022-09-04T16:09:29.933Z,8.55
2022-09-04T16:12:02.144Z,3.33
2022-09-04T16:14:32.797Z,2.30
2022-09-04T16:17:03.395Z,2.08
2022-09-04T16:19:34.125Z,1.90
2022-09-04T16:22:08.740Z,2.10
2022-09-04T16:24:41.754Z,2.15
2022-09-04T16:27:12.239Z,2.30
2022-09-04T16:29:43.085Z,2.30
2022-09-04T16:32:12.232Z,1.73
2022-09-04T16:34:45.281Z,2.00
2022-09-04T16:37:17.393Z,2.15
2022-09-04T16:39:50.593Z,2.15
2022-09-04T16:42:22.037Z,2.17
2022-09-04T16:44:53.288Z,2.20
2022-09-04T16:47:24.793Z,10.57
2022-09-04T16:49:57.548Z,2.70
2022-09-04T16:52:39.619Z,2.38
2022-09-04T16:55:11.481Z,2.20
2022-09-04T16:57:42.462Z,2.65
2022-09-04T17:00:12.233Z,1.85
2022-09-04T17:02:45.361Z,2.40
2022-09-04T17:05:19.721Z,2.40
2022-09-04T17:07:52.005Z,2.10
2022-09-04T17:10:31.510Z,2.33
2022-09-04T17:13:08.188Z,2.30
2022-09-04T17:15:53.879Z,2.25
2022-09-04T17:18:24.124Z,2.30
2022-09-04T17:23:35.413Z,2.10
2022-09-04T17:29:02.123Z,2.10
2022-09-04T17:29:08.802Z,1.98
2022-09-04T17:29:38.208Z,2.10
2022-09-04T17:32:20.534Z,2.30
2022-09-04T17:40:33.848Z,2.10
2022-09-04T17:40:44.605Z,2.00
2022-09-04T17:41:35.875Z,2.03
2022-09-04T17:44:02.348Z,2.22
2022-09-04T17:46:34.794Z,2.65
2022-09-04T17:49:07.971Z,2.42
2022-09-04T17:51:36.458Z,2.60
2022-09-04T17:54:07.281Z,2.30
2022-09-04T17:56:40.302Z,2.35
2022-09-04T17:59:10.075Z,2.30
2022-09-04T18:01:41.734Z,2.15
2022-09-04T18:04:21.877Z,2.20
2022-09-04T18:06:53.694Z,2.40
2022-09-04T18:09:26.808Z,2.55
2022-09-04T18:12:04.293Z,2.03
2022-09-04T18:14:37.382Z,2.03
2022-09-04T18:17:11.581Z,2.05
2022-09-04T18:19:44.128Z,2.25
2022-09-04T18:22:25.922Z,2.05
2022-09-04T18:24:57.458Z,2.17
2022-09-04T18:27:32.301Z,2.05
2022-09-04T18:37:08.937Z,2.28
2022-09-04T18:37:15.639Z,2.03
2022-09-04T18:37:24.545Z,2.03
2022-09-04T18:38:42.537Z,2.60
2022-09-04T18:44:08.713Z,2.20
2022-09-04T18:50:25.800Z,2.05
2022-09-04T18:50:30.300Z,2.00
2022-09-04T18:50:35.603Z,2.00
2022-09-04T18:52:57.952Z,2.03
2022-09-04T18:55:29.992Z,2.35
2022-09-04T18:58:02.985Z,2.45
2022-09-04T19:00:35.863Z,2.40
2022-09-04T19:03:11.512Z,2.33
2022-09-04T19:05:44.675Z,1.90
2022-09-04T19:08:15.518Z,2.20
2022-09-04T19:10:49.293Z,2.30
2022-09-04T19:13:24.137Z,2.20
2022-09-04T19:15:57.276Z,2.60
2022-09-04T19:18:27.530Z,2.45
2022-09-04T19:21:14.168Z,2.80
2022-09-04T19:23:44.817Z,2.75
2022-09-04T19:26:20.149Z,2.70
2022-09-04T19:28:53.171Z,2.80
2022-09-04T19:31:29.976Z,2.55
2022-09-04T19:33:59.397Z,2.65
2022-09-04T19:36:35.106Z,2.65
2022-09-04T19:45:57.095Z,2.53
2022-09-04T19:46:05.764Z,3.20
2022-09-04T19:46:16.924Z,3.00
2022-09-04T19:47:49.420Z,2.78
2022-09-04T19:53:20.213Z,2.70
2022-09-04T19:53:31.358Z,2.90
2022-09-04T19:56:05.680Z,3.13
2022-09-04T19:58:37.878Z,3.25
2022-09-04T20:01:15.154Z,2.80
2022-09-04T20:03:50.008Z,3.10
2022-09-04T20:06:23.141Z,2.80
2022-09-04T20:08:57.835Z,2.58
2022-09-04T20:11:34.769Z,2.95
2022-09-04T20:14:13.463Z,3.28
2022-09-04T20:16:48.429Z,2.72
2022-09-04T20:19:27.992Z,3.20
2022-09-04T20:21:59.238Z,2.95
2022-09-04T20:24:30.426Z,3.30
2022-09-04T20:27:01.234Z,3.05
2022-09-04T20:29:33.505Z,2.65
2022-09-04T20:32:05.012Z,2.92
2022-09-04T20:34:39.128Z,3.05
2022-09-04T20:37:28.298Z,2.80
2022-09-04T20:40:04.719Z,2.85
2022-09-04T20:42:36.490Z,3.15
2022-09-04T20:47:55.035Z,3.30
2022-09-04T20:52:44.178Z,3.20
2022-09-04T20:52:59.682Z,3.30
2022-09-04T20:53:42.915Z,3.50
2022-09-04T20:57:15.665Z,3.28
2022-09-04T21:03:06.760Z,3.10
2022-09-04T21:03:19.490Z,3.30
2022-09-04T21:04:52.520Z,2.88
2022-09-04T21:07:28.153Z,3.45
2022-09-04T21:10:00.516Z,3.50
2022-09-04T21:12:34.142Z,3.15
2022-09-04T21:15:08.897Z,3.13
2022-09-04T21:17:58.207Z,3.47
2022-09-04T21:20:38.773Z,3.35
2022-09-04T21:23:38.503Z,3.30
2022-09-04T21:26:13.371Z,3.22
2022-09-04T21:28:58.290Z,2.67
2022-09-04T21:31:51.314Z,3.20
2022-09-04T21:34:27.055Z,3.20
2022-09-04T21:36:59.195Z,3.28
2022-09-04T21:39:34.794Z,2.90
2022-09-04T21:42:12.269Z,2.78
2022-09-04T21:45:03.797Z,3.17
2022-09-04T21:47:44.811Z,3.33
2022-09-04T21:50:34.324Z,3.00
2022-09-04T21:53:12.711Z,3.30
2022-09-04T22:00:57.983Z,3.30
2022-09-04T22:02:43.252Z,3.15
2022-09-04T22:02:46.081Z,3.17
2022-09-04T22:04:47.280Z,3.13
2022-09-04T22:12:22.357Z,3.55
2022-09-04T22:13:32.584Z,3.30
2022-09-04T22:13:42.207Z,3.30
2022-09-04T22:16:07.654Z,3.13
2022-09-04T22:18:43.513Z,3.15
2022-09-04T22:21:21.451Z,3.60
2022-09-04T22:24:04.736Z,3.58
2022-09-04T22:26:53.952Z,3.13
2022-09-04T22:29:39.888Z,3.38
2022-09-04T22:32:29.777Z,3.50
2022-09-04T22:35:15.477Z,3.30
2022-09-04T22:37:55.743Z,3.58
2022-09-04T22:40:38.033Z,3.67
2022-09-04T22:43:24.257Z,3.90
2022-09-04T22:46:08.684Z,3.22
2022-09-04T22:49:11.021Z,3.30
2022-09-04T22:51:48.252Z,3.42
2022-09-04T22:54:24.163Z,3.47
2022-09-04T22:56:54.546Z,3.28
2022-09-04T22:59:43.770Z,3.42
2022-09-04T23:02:30.219Z,3.88
2022-09-04T23:05:18.218Z,3.45
2022-09-04T23:13:43.460Z,3.60
2022-09-04T23:13:53.394Z,3.78
2022-09-04T23:14:06.605Z,3.30
2022-09-04T23:16:46.548Z,3.78
2022-09-04T23:26:33.134Z,3.50
2022-09-04T23:26:41.496Z,3.85
2022-09-04T23:26:45.506Z,3.25
2022-09-04T23:28:02.684Z,2.90
2022-09-04T23:30:54.085Z,3.60
2022-09-04T23:33:44.704Z,3.42
2022-09-04T23:36:33.391Z,3.50
2022-09-04T23:39:17.033Z,3.50
2022-09-04T23:41:53.598Z,3.40
2022-09-04T23:44:35.203Z,3.25
2022-09-04T23:47:09.447Z,3.20
2022-09-04T23:50:02.770Z,3.60
2022-09-04T23:52:48.830Z,3.35
2022-09-04T23:55:23.707Z,3.22
2022-09-04T23:57:54.510Z,3.40
